sensor_id;sensor_type;location;lat;lon;timestamp;P1;durP1;ratioP1;P2;durP2;ratioP2
34497;SDS011;20744;50.938;7.286;2023-02-28T00:00:29;5.15;;;2.33;;
34497;SDS011;20744;50.938;7.286;2023-02-28T00:02:56;7.63;;;2.95;;
34497;SDS011;20744;50.938;7.286;2023-02-28T00:05:24;8.45;;;3.15;;
34497;SDS011;20744;50.938;7.286;2023-02-28T00:07:51;7.18;;;2.85;;
34497;SDS011;20744;50.938;7.286;2023-02-28T00:10:19;7.63;;;3.13;;
34497;SDS011;20744;50.938;7.286;2023-02-28T00:12:48;8.77;;;3.00;;
34497;SDS011;20744;50.938;7.286;2023-02-28T00:15:17;8.00;;;3.03;;
34497;SDS011;20744;50.938;7.286;2023-02-28T00:17:44;6.15;;;2.70;;
34497;SDS011;20744;50.938;7.286;2023-02-28T00:20:12;6.47;;;3.10;;
34497;SDS011;20744;50.938;7.286;2023-02-28T00:22:41;7.28;;;2.53;;
34497;SDS011;20744;50.938;7.286;2023-02-28T00:25:10;6.88;;;3.50;;
34497;SDS011;20744;50.938;7.286;2023-02-28T00:27:37;7.07;;;2.55;;
34497;SDS011;20744;50.938;7.286;2023-02-28T00:30:06;8.75;;;3.00;;
34497;SDS011;20744;50.938;7.286;2023-02-28T00:32:35;9.45;;;2.42;;
34497;SDS011;20744;50.938;7.286;2023-02-28T00:35:03;6.97;;;2.63;;
34497;SDS011;20744;50.938;7.286;2023-02-28T00:37:30;6.32;;;2.63;;
34497;SDS011;20744;50.938;7.286;2023-02-28T00:39:57;5.63;;;2.80;;
34497;SDS011;20744;50.938;7.286;2023-02-28T00:42:25;8.07;;;2.65;;
34497;SDS011;20744;50.938;7.286;2023-02-28T00:44:52;7.20;;;2.97;;
34497;SDS011;20744;50.938;7.286;2023-02-28T00:47:19;8.23;;;2.90;;
34497;SDS011;20744;50.938;7.286;2023-02-28T00:49:48;7.75;;;2.67;;
34497;SDS011;20744;50.938;7.286;2023-02-28T00:52:15;7.88;;;2.70;;
34497;SDS011;20744;50.938;7.286;2023-02-28T00:54:42;6.65;;;2.70;;
34497;SDS011;20744;50.938;7.286;2023-02-28T00:57:09;6.82;;;2.55;;
34497;SDS011;20744;50.938;7.286;2023-02-28T00:59:37;6.97;;;2.50;;
34497;SDS011;20744;50.938;7.286;2023-02-28T01:02:04;6.45;;;2.55;;
34497;SDS011;20744;50.938;7.286;2023-02-28T01:04:31;11.55;;;2.63;;
34497;SDS011;20744;50.938;7.286;2023-02-28T01:07:00;7.53;;;2.78;;
34497;SDS011;20744;50.938;7.286;2023-02-28T01:09:27;7.68;;;2.50;;
34497;SDS011;20744;50.938;7.286;2023-02-28T01:11:54;9.35;;;2.92;;
34497;SDS011;20744;50.938;7.286;2023-02-28T01:14:22;5.75;;;2.60;;
34497;SDS011;20744;50.938;7.286;2023-02-28T01:16:49;5.53;;;2.63;;
34497;SDS011;20744;50.938;7.286;2023-02-28T01:19:17;6.25;;;2.58;;
34497;SDS011;20744;50.938;7.286;2023-02-28T01:21:44;7.32;;;2.50;;
34497;SDS011;20744;50.938;7.286;2023-02-28T01:24:12;6.40;;;2.42;;
34497;SDS011;20744;50.938;7.286;2023-02-28T01:26:40;8.48;;;3.00;;
34497;SDS011;20744;50.938;7.286;2023-02-28T01:29:07;9.38;;;3.40;;
34497;SDS011;20744;50.938;7.286;2023-02-28T01:31:34;7.57;;;2.33;;
34497;SDS011;20744;50.938;7.286;2023-02-28T01:34:02;7.80;;;2.38;;
34497;SDS011;20744;50.938;7.286;2023-02-28T01:36:29;8.30;;;2.60;;
34497;SDS011;20744;50.938;7.286;2023-02-28T01:38:56;5.68;;;1.92;;
34497;SDS011;20744;50.938;7.286;2023-02-28T01:41:26;5.50;;;2.28;;
34497;SDS011;20744;50.938;7.286;2023-02-28T01:43:55;5.82;;;2.40;;
34497;SDS011;20744;50.938;7.286;2023-02-28T01:46:23;5.72;;;2.28;;
34497;SDS011;20744;50.938;7.286;2023-02-28T01:48:51;7.72;;;2.70;;
34497;SDS011;20744;50.938;7.286;2023-02-28T01:51:20;6.07;;;2.92;;
34497;SDS011;20744;50.938;7.286;2023-02-28T01:53:49;8.25;;;2.72;;
34497;SDS011;20744;50.938;7.286;2023-02-28T01:56:19;5.15;;;2.47;;
34497;SDS011;20744;50.938;7.286;2023-02-28T01:58:48;5.93;;;2.50;;
34497;SDS011;20744;50.938;7.286;2023-02-28T02:01:16;5.25;;;2.40;;
34497;SDS011;20744;50.938;7.286;2023-02-28T02:03:46;8.07;;;2.60;;
34497;SDS011;20744;50.938;7.286;2023-02-28T02:06:20;6.13;;;2.75;;
34497;SDS011;20744;50.938;7.286;2023-02-28T02:08:47;7.25;;;2.67;;
34497;SDS011;20744;50.938;7.286;2023-02-28T02:11:15;7.13;;;2.60;;
34497;SDS011;20744;50.938;7.286;2023-02-28T02:13:50;7.15;;;2.70;;
34497;SDS011;20744;50.938;7.286;2023-02-28T02:16:28;9.70;;;2.80;;
34497;SDS011;20744;50.938;7.286;2023-02-28T02:19:00;4.80;;;2.60;;
34497;SDS011;20744;50.938;7.286;2023-02-28T02:21:42;5.63;;;2.75;;
34497;SDS011;20744;50.938;7.286;2023-02-28T02:27:09;8.25;;;3.00;;
34497;SDS011;20744;50.938;7.286;2023-02-28T02:35:25;8.80;;;3.03;;
34497;SDS011;20744;50.938;7.286;2023-02-28T02:37:56;8.43;;;2.50;;
34497;SDS011;20744;50.938;7.286;2023-02-28T02:40:27;7.03;;;2.40;;
34497;SDS011;20744;50.938;7.286;2023-02-28T02:42:58;5.20;;;2.33;;
34497;SDS011;20744;50.938;7.286;2023-02-28T02:45:29;4.68;;;2.05;;
34497;SDS011;20744;50.938;7.286;2023-02-28T02:48:01;5.03;;;1.90;;
34497;SDS011;20744;50.938;7.286;2023-02-28T02:50:31;4.05;;;2.00;;
34497;SDS011;20744;50.938;7.286;2023-02-28T02:53:00;4.82;;;2.58;;
34497;SDS011;20744;50.938;7.286;2023-02-28T02:55:28;4.20;;;2.15;;
34497;SDS011;20744;50.938;7.286;2023-02-28T02:57:57;5.88;;;2.25;;
34497;SDS011;20744;50.938;7.286;2023-02-28T03:00:27;4.50;;;2.05;;
34497;SDS011;20744;50.938;7.286;2023-02-28T03:02:56;3.05;;;1.70;;
34497;SDS011;20744;50.938;7.286;2023-02-28T03:05:25;4.65;;;2.10;;
34497;SDS011;20744;50.938;7.286;2023-02-28T03:07:54;7.63;;;2.03;;
34497;SDS011;20744;50.938;7.286;2023-02-28T03:10:25;5.88;;;2.08;;
34497;SDS011;20744;50.938;7.286;2023-02-28T03:12:54;4.95;;;2.00;;
34497;SDS011;20744;50.938;7.286;2023-02-28T03:15:26;2.67;;;1.77;;
34497;SDS011;20744;50.938;7.286;2023-02-28T03:18:00;4.75;;;1.92;;
34497;SDS011;20744;50.938;7.286;2023-02-28T03:20:33;5.75;;;2.25;;
34497;SDS011;20744;50.938;7.286;2023-02-28T03:23:14;3.50;;;2.00;;
34497;SDS011;20744;50.938;7.286;2023-02-28T03:25:46;3.60;;;2.25;;
34497;SDS011;20744;50.938;7.286;2023-02-28T03:28:18;4.90;;;2.13;;
34497;SDS011;20744;50.938;7.286;2023-02-28T03:30:49;5.88;;;1.90;;
34497;SDS011;20744;50.938;7.286;2023-02-28T03:33:20;4.60;;;1.73;;
34497;SDS011;20744;50.938;7.286;2023-02-28T03:35:50;4.53;;;1.80;;
34497;SDS011;20744;50.938;7.286;2023-02-28T03:38:20;3.85;;;1.90;;
34497;SDS011;20744;50.938;7.286;2023-02-28T03:40:49;4.80;;;2.00;;
34497;SDS011;20744;50.938;7.286;2023-02-28T03:43:19;3.30;;;1.80;;
34497;SDS011;20744;50.938;7.286;2023-02-28T03:45:48;4.95;;;1.95;;
34497;SDS011;20744;50.938;7.286;2023-02-28T03:48:17;5.20;;;1.95;;
34497;SDS011;20744;50.938;7.286;2023-02-28T03:50:46;6.05;;;1.83;;
34497;SDS011;20744;50.938;7.286;2023-02-28T03:53:16;2.83;;;1.90;;
34497;SDS011;20744;50.938;7.286;2023-02-28T03:55:55;5.25;;;1.85;;
34497;SDS011;20744;50.938;7.286;2023-02-28T03:58:26;6.88;;;1.90;;
34497;SDS011;20744;50.938;7.286;2023-02-28T04:00:55;5.85;;;1.65;;
34497;SDS011;20744;50.938;7.286;2023-02-28T04:03:24;7.60;;;1.80;;
34497;SDS011;20744;50.938;7.286;2023-02-28T04:05:52;3.15;;;1.73;;
34497;SDS011;20744;50.938;7.286;2023-02-28T04:08:20;3.75;;;1.90;;
34497;SDS011;20744;50.938;7.286;2023-02-28T04:10:50;2.70;;;1.70;;
34497;SDS011;20744;50.938;7.286;2023-02-28T04:13:20;5.25;;;2.05;;
34497;SDS011;20744;50.938;7.286;2023-02-28T04:15:47;4.32;;;1.83;;
34497;SDS011;20744;50.938;7.286;2023-02-28T04:18:14;3.92;;;1.77;;
34497;SDS011;20744;50.938;7.286;2023-02-28T04:20:41;5.03;;;1.88;;
34497;SDS011;20744;50.938;7.286;2023-02-28T04:23:09;4.63;;;1.98;;
34497;SDS011;20744;50.938;7.286;2023-02-28T04:25:36;3.05;;;1.92;;
34497;SDS011;20744;50.938;7.286;2023-02-28T04:28:06;4.30;;;1.67;;
34497;SDS011;20744;50.938;7.286;2023-02-28T04:30:34;3.08;;;1.70;;
34497;SDS011;20744;50.938;7.286;2023-02-28T04:33:02;2.95;;;1.90;;
34497;SDS011;20744;50.938;7.286;2023-02-28T04:35:29;7.15;;;2.53;;
34497;SDS011;20744;50.938;7.286;2023-02-28T04:37:56;4.22;;;2.20;;
34497;SDS011;20744;50.938;7.286;2023-02-28T04:40:23;3.65;;;2.20;;
34497;SDS011;20744;50.938;7.286;2023-02-28T04:42:50;6.43;;;2.58;;
34497;SDS011;20744;50.938;7.286;2023-02-28T04:45:19;3.53;;;2.00;;
34497;SDS011;20744;50.938;7.286;2023-02-28T04:47:46;5.93;;;2.92;;
34497;SDS011;20744;50.938;7.286;2023-02-28T04:50:14;8.10;;;2.90;;
34497;SDS011;20744;50.938;7.286;2023-02-28T04:52:41;6.53;;;2.60;;
34497;SDS011;20744;50.938;7.286;2023-02-28T04:55:08;4.07;;;2.50;;
34497;SDS011;20744;50.938;7.286;2023-02-28T04:57:36;7.63;;;2.72;;
34497;SDS011;20744;50.938;7.286;2023-02-28T05:00:03;6.03;;;2.33;;
34497;SDS011;20744;50.938;7.286;2023-02-28T05:02:37;10.55;;;3.33;;
34497;SDS011;20744;50.938;7.286;2023-02-28T05:05:05;4.45;;;2.70;;
34497;SDS011;20744;50.938;7.286;2023-02-28T05:07:32;5.53;;;2.58;;
34497;SDS011;20744;50.938;7.286;2023-02-28T05:10:00;4.60;;;2.22;;
34497;SDS011;20744;50.938;7.286;2023-02-28T05:12:27;5.05;;;2.28;;
34497;SDS011;20744;50.938;7.286;2023-02-28T05:14:55;5.93;;;2.47;;
34497;SDS011;20744;50.938;7.286;2023-02-28T05:17:22;4.35;;;2.22;;
34497;SDS011;20744;50.938;7.286;2023-02-28T05:19:51;4.15;;;2.10;;
34497;SDS011;20744;50.938;7.286;2023-02-28T05:22:18;3.92;;;2.20;;
34497;SDS011;20744;50.938;7.286;2023-02-28T05:24:45;6.63;;;2.72;;
34497;SDS011;20744;50.938;7.286;2023-02-28T05:27:12;4.63;;;2.40;;
34497;SDS011;20744;50.938;7.286;2023-02-28T05:29:39;5.55;;;2.83;;
34497;SDS011;20744;50.938;7.286;2023-02-28T05:32:08;6.18;;;2.85;;
34497;SDS011;20744;50.938;7.286;2023-02-28T05:34:36;6.03;;;3.25;;
34497;SDS011;20744;50.938;7.286;2023-02-28T05:37:05;10.85;;;2.92;;
34497;SDS011;20744;50.938;7.286;2023-02-28T05:39:33;5.25;;;2.38;;
34497;SDS011;20744;50.938;7.286;2023-02-28T05:42:00;4.18;;;2.33;;
34497;SDS011;20744;50.938;7.286;2023-02-28T05:44:27;4.18;;;2.13;;
34497;SDS011;20744;50.938;7.286;2023-02-28T05:46:54;3.58;;;2.25;;
34497;SDS011;20744;50.938;7.286;2023-02-28T05:49:21;3.13;;;2.03;;
34497;SDS011;20744;50.938;7.286;2023-02-28T05:51:49;4.55;;;2.20;;
34497;SDS011;20744;50.938;7.286;2023-02-28T05:54:17;4.68;;;2.35;;
34497;SDS011;20744;50.938;7.286;2023-02-28T05:56:44;4.50;;;2.20;;
34497;SDS011;20744;50.938;7.286;2023-02-28T05:59:12;5.18;;;2.60;;
34497;SDS011;20744;50.938;7.286;2023-02-28T06:01:40;8.27;;;2.60;;
34497;SDS011;20744;50.938;7.286;2023-02-28T06:04:13;4.70;;;2.65;;
34497;SDS011;20744;50.938;7.286;2023-02-28T06:06:42;5.85;;;3.22;;
34497;SDS011;20744;50.938;7.286;2023-02-28T06:09:10;5.68;;;2.97;;
34497;SDS011;20744;50.938;7.286;2023-02-28T06:11:38;4.80;;;3.20;;
34497;SDS011;20744;50.938;7.286;2023-02-28T06:14:06;9.27;;;2.65;;
34497;SDS011;20744;50.938;7.286;2023-02-28T06:16:33;5.05;;;2.72;;
34497;SDS011;20744;50.938;7.286;2023-02-28T06:19:02;6.40;;;2.97;;
34497;SDS011;20744;50.938;7.286;2023-02-28T06:21:29;5.43;;;2.97;;
34497;SDS011;20744;50.938;7.286;2023-02-28T06:23:57;7.20;;;4.07;;
34497;SDS011;20744;50.938;7.286;2023-02-28T06:26:24;7.68;;;3.05;;
34497;SDS011;20744;50.938;7.286;2023-02-28T06:28:53;5.85;;;3.22;;
34497;SDS011;20744;50.938;7.286;2023-02-28T06:31:21;7.97;;;3.60;;
34497;SDS011;20744;50.938;7.286;2023-02-28T06:33:49;6.22;;;3.40;;
34497;SDS011;20744;50.938;7.286;2023-02-28T06:36:17;8.52;;;3.28;;
34497;SDS011;20744;50.938;7.286;2023-02-28T06:38:45;9.00;;;3.50;;
34497;SDS011;20744;50.938;7.286;2023-02-28T06:41:16;8.07;;;4.10;;
34497;SDS011;20744;50.938;7.286;2023-02-28T06:43:43;8.35;;;3.30;;
34497;SDS011;20744;50.938;7.286;2023-02-28T06:46:13;6.85;;;3.40;;
34497;SDS011;20744;50.938;7.286;2023-02-28T06:48:42;8.00;;;3.60;;
34497;SDS011;20744;50.938;7.286;2023-02-28T06:51:10;4.45;;;2.70;;
34497;SDS011;20744;50.938;7.286;2023-02-28T06:53:38;7.25;;;3.05;;
34497;SDS011;20744;50.938;7.286;2023-02-28T06:56:06;6.15;;;2.80;;
34497;SDS011;20744;50.938;7.286;2023-02-28T06:58:33;7.05;;;3.70;;
34497;SDS011;20744;50.938;7.286;2023-02-28T07:01:01;9.10;;;2.72;;
34497;SDS011;20744;50.938;7.286;2023-02-28T07:03:30;5.70;;;2.90;;
34497;SDS011;20744;50.938;7.286;2023-02-28T07:05:57;8.82;;;3.40;;
34497;SDS011;20744;50.938;7.286;2023-02-28T07:08:24;8.00;;;2.90;;
34497;SDS011;20744;50.938;7.286;2023-02-28T07:10:52;8.75;;;3.10;;
34497;SDS011;20744;50.938;7.286;2023-02-28T07:13:20;5.88;;;2.92;;
34497;SDS011;20744;50.938;7.286;2023-02-28T07:15:52;6.93;;;2.85;;
34497;SDS011;20744;50.938;7.286;2023-02-28T07:18:20;6.25;;;2.72;;
34497;SDS011;20744;50.938;7.286;2023-02-28T07:20:48;5.07;;;2.75;;
34497;SDS011;20744;50.938;7.286;2023-02-28T07:23:16;5.25;;;2.65;;
34497;SDS011;20744;50.938;7.286;2023-02-28T07:25:43;6.25;;;2.78;;
34497;SDS011;20744;50.938;7.286;2023-02-28T07:28:11;4.07;;;2.28;;
34497;SDS011;20744;50.938;7.286;2023-02-28T07:30:38;5.25;;;2.38;;
34497;SDS011;20744;50.938;7.286;2023-02-28T07:33:06;4.30;;;2.35;;
34497;SDS011;20744;50.938;7.286;2023-02-28T07:35:33;5.65;;;2.20;;
34497;SDS011;20744;50.938;7.286;2023-02-28T07:38:02;3.25;;;2.10;;
34497;SDS011;20744;50.938;7.286;2023-02-28T07:40:30;4.18;;;2.30;;
34497;SDS011;20744;50.938;7.286;2023-02-28T07:42:58;5.90;;;2.42;;
34497;SDS011;20744;50.938;7.286;2023-02-28T07:45:26;4.68;;;1.98;;
34497;SDS011;20744;50.938;7.286;2023-02-28T07:47:53;3.97;;;2.00;;
34497;SDS011;20744;50.938;7.286;2023-02-28T07:50:21;7.30;;;2.20;;
34497;SDS011;20744;50.938;7.286;2023-02-28T07:52:48;3.97;;;2.00;;
34497;SDS011;20744;50.938;7.286;2023-02-28T07:55:17;4.00;;;2.17;;
34497;SDS011;20744;50.938;7.286;2023-02-28T07:57:44;6.57;;;1.90;;
34497;SDS011;20744;50.938;7.286;2023-02-28T08:00:12;5.70;;;1.95;;
34497;SDS011;20744;50.938;7.286;2023-02-28T08:02:39;4.00;;;2.20;;
34497;SDS011;20744;50.938;7.286;2023-02-28T08:05:07;3.58;;;1.95;;
34497;SDS011;20744;50.938;7.286;2023-02-28T08:07:34;3.50;;;2.00;;
34497;SDS011;20744;50.938;7.286;2023-02-28T08:10:01;4.00;;;1.60;;
34497;SDS011;20744;50.938;7.286;2023-02-28T08:12:32;3.08;;;1.70;;
34497;SDS011;20744;50.938;7.286;2023-02-28T08:14:59;3.35;;;1.75;;
34497;SDS011;20744;50.938;7.286;2023-02-28T08:17:26;2.83;;;1.60;;
34497;SDS011;20744;50.938;7.286;2023-02-28T08:19:53;3.45;;;1.85;;
34497;SDS011;20744;50.938;7.286;2023-02-28T08:22:20;3.45;;;1.40;;
34497;SDS011;20744;50.938;7.286;2023-02-28T08:24:48;2.30;;;1.33;;
34497;SDS011;20744;50.938;7.286;2023-02-28T08:27:15;5.32;;;1.40;;
34497;SDS011;20744;50.938;7.286;2023-02-28T08:29:44;3.80;;;1.70;;
34497;SDS011;20744;50.938;7.286;2023-02-28T08:32:11;6.80;;;1.73;;
34497;SDS011;20744;50.938;7.286;2023-02-28T08:34:38;3.53;;;1.52;;
34497;SDS011;20744;50.938;7.286;2023-02-28T08:37:06;3.00;;;1.58;;
34497;SDS011;20744;50.938;7.286;2023-02-28T08:39:33;6.65;;;1.58;;
34497;SDS011;20744;50.938;7.286;2023-02-28T08:42:01;2.22;;;1.17;;
34497;SDS011;20744;50.938;7.286;2023-02-28T08:44:28;2.97;;;1.63;;
34497;SDS011;20744;50.938;7.286;2023-02-28T08:46:57;4.50;;;1.70;;
34497;SDS011;20744;50.938;7.286;2023-02-28T08:49:24;6.68;;;1.10;;
34497;SDS011;20744;50.938;7.286;2023-02-28T08:51:51;3.30;;;1.40;;
34497;SDS011;20744;50.938;7.286;2023-02-28T08:54:20;3.88;;;1.45;;
34497;SDS011;20744;50.938;7.286;2023-02-28T08:56:48;7.07;;;1.60;;
34497;SDS011;20744;50.938;7.286;2023-02-28T08:59:15;2.50;;;1.30;;
34497;SDS011;20744;50.938;7.286;2023-02-28T09:01:42;2.30;;;1.27;;
34497;SDS011;20744;50.938;7.286;2023-02-28T09:04:11;1.88;;;1.15;;
34497;SDS011;20744;50.938;7.286;2023-02-28T09:06:38;3.13;;;1.48;;
34497;SDS011;20744;50.938;7.286;2023-02-28T09:09:05;2.45;;;1.25;;
34497;SDS011;20744;50.938;7.286;2023-02-28T09:11:34;8.77;;;1.33;;
34497;SDS011;20744;50.938;7.286;2023-02-28T09:14:02;6.82;;;1.20;;
34497;SDS011;20744;50.938;7.286;2023-02-28T09:16:29;2.17;;;1.25;;
34497;SDS011;20744;50.938;7.286;2023-02-28T09:18:57;3.78;;;1.00;;
34497;SDS011;20744;50.938;7.286;2023-02-28T09:21:26;2.90;;;1.08;;
34497;SDS011;20744;50.938;7.286;2023-02-28T09:23:53;5.00;;;1.20;;
34497;SDS011;20744;50.938;7.286;2023-02-28T09:26:21;3.38;;;1.10;;
34497;SDS011;20744;50.938;7.286;2023-02-28T09:28:48;2.13;;;1.15;;
34497;SDS011;20744;50.938;7.286;2023-02-28T09:31:16;2.05;;;1.17;;
34497;SDS011;20744;50.938;7.286;2023-02-28T09:33:45;2.35;;;1.17;;
34497;SDS011;20744;50.938;7.286;2023-02-28T09:36:13;2.03;;;1.10;;
34497;SDS011;20744;50.938;7.286;2023-02-28T09:38:41;3.78;;;1.30;;
34497;SDS011;20744;50.938;7.286;2023-02-28T09:41:13;3.50;;;1.05;;
34497;SDS011;20744;50.938;7.286;2023-02-28T09:43:40;6.35;;;1.20;;
34497;SDS011;20744;50.938;7.286;2023-02-28T09:46:13;2.40;;;1.20;;
34497;SDS011;20744;50.938;7.286;2023-02-28T09:48:42;2.55;;;1.40;;
34497;SDS011;20744;50.938;7.286;2023-02-28T09:51:13;2.85;;;1.40;;
34497;SDS011;20744;50.938;7.286;2023-02-28T09:53:44;3.13;;;1.60;;
34497;SDS011;20744;50.938;7.286;2023-02-28T09:56:12;3.25;;;1.40;;
34497;SDS011;20744;50.938;7.286;2023-02-28T09:58:47;2.60;;;1.23;;
34497;SDS011;20744;50.938;7.286;2023-02-28T10:01:18;2.67;;;1.45;;
34497;SDS011;20744;50.938;7.286;2023-02-28T10:03:49;2.40;;;1.45;;
34497;SDS011;20744;50.938;7.286;2023-02-28T10:06:23;3.60;;;1.50;;
34497;SDS011;20744;50.938;7.286;2023-02-28T10:08:57;3.47;;;1.48;;
34497;SDS011;20744;50.938;7.286;2023-02-28T10:11:25;7.93;;;1.48;;
34497;SDS011;20744;50.938;7.286;2023-02-28T10:13:53;2.78;;;1.60;;
34497;SDS011;20744;50.938;7.286;2023-02-28T10:16:25;4.55;;;1.35;;
34497;SDS011;20744;50.938;7.286;2023-02-28T10:18:56;4.70;;;1.83;;
34497;SDS011;20744;50.938;7.286;2023-02-28T10:21:26;2.97;;;1.48;;
34497;SDS011;20744;50.938;7.286;2023-02-28T10:23:59;2.95;;;1.42;;
34497;SDS011;20744;50.938;7.286;2023-02-28T10:26:29;4.25;;;1.35;;
34497;SDS011;20744;50.938;7.286;2023-02-28T10:28:57;3.05;;;1.52;;
34497;SDS011;20744;50.938;7.286;2023-02-28T10:31:25;4.32;;;1.50;;
34497;SDS011;20744;50.938;7.286;2023-02-28T10:33:52;2.08;;;1.20;;
34497;SDS011;20744;50.938;7.286;2023-02-28T10:36:20;3.75;;;1.50;;
34497;SDS011;20744;50.938;7.286;2023-02-28T10:38:48;3.47;;;1.40;;
34497;SDS011;20744;50.938;7.286;2023-02-28T10:41:25;3.28;;;1.40;;
34497;SDS011;20744;50.938;7.286;2023-02-28T10:43:53;2.80;;;1.27;;
34497;SDS011;20744;50.938;7.286;2023-02-28T10:46:39;2.55;;;1.23;;
34497;SDS011;20744;50.938;7.286;2023-02-28T10:49:11;7.72;;;1.38;;
34497;SDS011;20744;50.938;7.286;2023-02-28T10:51:40;3.10;;;1.50;;
34497;SDS011;20744;50.938;7.286;2023-02-28T10:54:14;3.45;;;1.30;;
34497;SDS011;20744;50.938;7.286;2023-02-28T10:56:43;2.70;;;1.17;;
34497;SDS011;20744;50.938;7.286;2023-02-28T10:59:23;2.25;;;1.25;;
34497;SDS011;20744;50.938;7.286;2023-02-28T11:01:53;2.95;;;1.40;;
34497;SDS011;20744;50.938;7.286;2023-02-28T11:04:31;4.20;;;1.50;;
34497;SDS011;20744;50.938;7.286;2023-02-28T11:07:01;2.30;;;1.17;;
34497;SDS011;20744;50.938;7.286;2023-02-28T11:09:30;2.05;;;1.17;;
34497;SDS011;20744;50.938;7.286;2023-02-28T11:12:01;2.30;;;1.52;;
34497;SDS011;20744;50.938;7.286;2023-02-28T11:14:29;2.78;;;1.40;;
34497;SDS011;20744;50.938;7.286;2023-02-28T11:16:58;1.70;;;1.10;;
34497;SDS011;20744;50.938;7.286;2023-02-28T11:19:28;3.22;;;1.50;;
34497;SDS011;20744;50.938;7.286;2023-02-28T11:22:00;3.05;;;1.55;;
34497;SDS011;20744;50.938;7.286;2023-02-28T11:24:28;2.47;;;1.30;;
34497;SDS011;20744;50.938;7.286;2023-02-28T11:26:57;2.20;;;1.30;;
34497;SDS011;20744;50.938;7.286;2023-02-28T11:29:27;2.33;;;1.40;;
34497;SDS011;20744;50.938;7.286;2023-02-28T11:32:02;5.57;;;1.25;;
34497;SDS011;20744;50.938;7.286;2023-02-28T11:34:30;2.38;;;1.45;;
34497;SDS011;20744;50.938;7.286;2023-02-28T11:36:57;4.07;;;1.60;;
34497;SDS011;20744;50.938;7.286;2023-02-28T11:39:26;2.47;;;1.50;;
34497;SDS011;20744;50.938;7.286;2023-02-28T11:41:58;3.40;;;1.40;;
34497;SDS011;20744;50.938;7.286;2023-02-28T11:44:31;3.05;;;1.48;;
34497;SDS011;20744;50.938;7.286;2023-02-28T11:47:04;2.45;;;1.20;;
34497;SDS011;20744;50.938;7.286;2023-02-28T11:49:34;4.38;;;1.50;;
34497;SDS011;20744;50.938;7.286;2023-02-28T11:52:06;4.15;;;1.70;;
34497;SDS011;20744;50.938;7.286;2023-02-28T11:54:42;3.15;;;1.60;;
34497;SDS011;20744;50.938;7.286;2023-02-28T11:57:18;5.53;;;1.52;;
34497;SDS011;20744;50.938;7.286;2023-02-28T11:59:51;7.03;;;1.60;;
34497;SDS011;20744;50.938;7.286;2023-02-28T12:02:25;2.78;;;1.70;;
34497;SDS011;20744;50.938;7.286;2023-02-28T12:04:59;3.63;;;1.60;;
34497;SDS011;20744;50.938;7.286;2023-02-28T12:07:31;4.88;;;1.50;;
34497;SDS011;20744;50.938;7.286;2023-02-28T12:10:03;4.15;;;1.70;;
34497;SDS011;20744;50.938;7.286;2023-02-28T12:12:38;4.03;;;2.20;;
34497;SDS011;20744;50.938;7.286;2023-02-28T12:15:15;3.30;;;1.73;;
34497;SDS011;20744;50.938;7.286;2023-02-28T12:17:47;4.30;;;1.88;;
34497;SDS011;20744;50.938;7.286;2023-02-28T12:20:23;2.92;;;1.92;;
34497;SDS011;20744;50.938;7.286;2023-02-28T12:22:54;3.67;;;2.00;;
34497;SDS011;20744;50.938;7.286;2023-02-28T12:28:25;4.65;;;2.35;;
34497;SDS011;20744;50.938;7.286;2023-02-28T12:30:57;3.33;;;1.95;;
34497;SDS011;20744;50.938;7.286;2023-02-28T12:33:28;9.27;;;1.92;;
34497;SDS011;20744;50.938;7.286;2023-02-28T12:35:58;4.53;;;1.98;;
34497;SDS011;20744;50.938;7.286;2023-02-28T12:38:27;4.53;;;2.30;;
34497;SDS011;20744;50.938;7.286;2023-02-28T12:40:56;2.50;;;1.77;;
34497;SDS011;20744;50.938;7.286;2023-02-28T12:43:28;3.78;;;1.98;;
34497;SDS011;20744;50.938;7.286;2023-02-28T12:46:00;4.07;;;2.40;;
34497;SDS011;20744;50.938;7.286;2023-02-28T12:48:31;3.80;;;2.00;;
34497;SDS011;20744;50.938;7.286;2023-02-28T12:51:04;3.45;;;1.98;;
34497;SDS011;20744;50.938;7.286;2023-02-28T12:53:35;5.05;;;2.45;;
34497;SDS011;20744;50.938;7.286;2023-02-28T12:56:08;3.50;;;1.90;;
34497;SDS011;20744;50.938;7.286;2023-02-28T12:58:37;3.90;;;1.98;;
34497;SDS011;20744;50.938;7.286;2023-02-28T13:04:08;6.28;;;2.30;;
34497;SDS011;20744;50.938;7.286;2023-02-28T13:06:44;3.72;;;2.00;;
34497;SDS011;20744;50.938;7.286;2023-02-28T13:09:16;3.50;;;2.00;;
34497;SDS011;20744;50.938;7.286;2023-02-28T13:11:44;4.07;;;1.88;;
34497;SDS011;20744;50.938;7.286;2023-02-28T13:14:18;3.70;;;2.20;;
34497;SDS011;20744;50.938;7.286;2023-02-28T13:16:59;5.72;;;2.10;;
34497;SDS011;20744;50.938;7.286;2023-02-28T13:19:30;3.10;;;1.95;;
34497;SDS011;20744;50.938;7.286;2023-02-28T13:21:58;3.22;;;2.00;;
34497;SDS011;20744;50.938;7.286;2023-02-28T13:24:40;4.05;;;1.70;;
34497;SDS011;20744;50.938;7.286;2023-02-28T13:29:53;3.63;;;2.17;;
34497;SDS011;20744;50.938;7.286;2023-02-28T13:32:31;3.05;;;2.20;;
34497;SDS011;20744;50.938;7.286;2023-02-28T13:35:16;4.35;;;2.33;;
34497;SDS011;20744;50.938;7.286;2023-02-28T13:38:21;3.72;;;1.95;;
34497;SDS011;20744;50.938;7.286;2023-02-28T13:40:49;4.45;;;2.47;;
34497;SDS011;20744;50.938;7.286;2023-02-28T13:43:17;2.95;;;2.00;;
34497;SDS011;20744;50.938;7.286;2023-02-28T13:46:05;3.25;;;2.10;;
34497;SDS011;20744;50.938;7.286;2023-02-28T13:48:33;5.78;;;2.25;;
34497;SDS011;20744;50.938;7.286;2023-02-28T13:51:02;3.22;;;2.08;;
34497;SDS011;20744;50.938;7.286;2023-02-28T13:53:55;4.13;;;2.28;;
34497;SDS011;20744;50.938;7.286;2023-02-28T13:56:31;4.55;;;2.20;;
34497;SDS011;20744;50.938;7.286;2023-02-28T13:59:04;6.20;;;2.30;;
34497;SDS011;20744;50.938;7.286;2023-02-28T14:01:40;3.88;;;2.42;;
34497;SDS011;20744;50.938;7.286;2023-02-28T14:04:23;4.45;;;2.75;;
34497;SDS011;20744;50.938;7.286;2023-02-28T14:06:57;3.38;;;2.22;;
34497;SDS011;20744;50.938;7.286;2023-02-28T14:09:27;7.80;;;2.20;;
34497;SDS011;20744;50.938;7.286;2023-02-28T14:11:55;7.68;;;2.53;;
34497;SDS011;20744;50.938;7.286;2023-02-28T14:17:13;4.15;;;2.30;;
34497;SDS011;20744;50.938;7.286;2023-02-28T14:19:41;4.68;;;2.33;;
34497;SDS011;20744;50.938;7.286;2023-02-28T14:22:19;6.65;;;2.38;;
34497;SDS011;20744;50.938;7.286;2023-02-28T14:25:06;6.85;;;2.50;;
34497;SDS011;20744;50.938;7.286;2023-02-28T14:27:37;4.38;;;2.30;;
34497;SDS011;20744;50.938;7.286;2023-02-28T14:30:11;3.97;;;2.20;;
34497;SDS011;20744;50.938;7.286;2023-02-28T14:32:41;3.05;;;2.05;;
34497;SDS011;20744;50.938;7.286;2023-02-28T14:35:15;3.25;;;2.22;;
34497;SDS011;20744;50.938;7.286;2023-02-28T14:37:46;4.47;;;2.15;;
34497;SDS011;20744;50.938;7.286;2023-02-28T14:40:15;4.82;;;2.70;;
34497;SDS011;20744;50.938;7.286;2023-02-28T14:42:46;3.33;;;2.33;;
34497;SDS011;20744;50.938;7.286;2023-02-28T14:45:17;3.63;;;2.22;;
34497;SDS011;20744;50.938;7.286;2023-02-28T14:47:45;9.63;;;2.20;;
34497;SDS011;20744;50.938;7.286;2023-02-28T14:50:17;3.42;;;2.15;;
34497;SDS011;20744;50.938;7.286;2023-02-28T14:52:45;8.15;;;2.60;;
34497;SDS011;20744;50.938;7.286;2023-02-28T14:55:14;5.93;;;2.40;;
34497;SDS011;20744;50.938;7.286;2023-02-28T14:57:43;3.25;;;1.98;;
34497;SDS011;20744;50.938;7.286;2023-02-28T15:00:21;5.32;;;2.10;;
34497;SDS011;20744;50.938;7.286;2023-02-28T15:02:49;6.35;;;2.20;;
34497;SDS011;20744;50.938;7.286;2023-02-28T15:05:27;6.13;;;2.40;;
34497;SDS011;20744;50.938;7.286;2023-02-28T15:08:05;7.93;;;2.17;;
34497;SDS011;20744;50.938;7.286;2023-02-28T15:10:34;6.10;;;2.60;;
34497;SDS011;20744;50.938;7.286;2023-02-28T15:13:02;6.05;;;2.65;;
34497;SDS011;20744;50.938;7.286;2023-02-28T15:15:35;3.50;;;2.10;;
34497;SDS011;20744;50.938;7.286;2023-02-28T15:20:43;3.30;;;2.10;;
34497;SDS011;20744;50.938;7.286;2023-02-28T15:23:11;3.80;;;2.13;;
34497;SDS011;20744;50.938;7.286;2023-02-28T15:25:40;8.75;;;2.28;;